<?xml version='1.0' encoding='UTF-8'?><gpx version="1.1" creator="JPX - https://github.com/jenetics/jpx" xmlns="http://www.topografix.com/GPX/1/1"><trk><trkseg><trkpt lat="43.6916401" lon="12.8575842"><ele>112.00000000000001</ele><time>2026-04-04T09:04:51.697Z</time></trkpt><trkpt lat="43.6917197" lon="12.8575486"><ele>112.0</ele><time>2026-04-04T09:04:53.698Z</time></trkpt><trkpt lat="43.691785" lon="12.8574984"><ele>112.0</ele><time>2026-04-04T09:04:55.699Z</time></trkpt><trkpt lat="43.6918518" lon="12.8574375"><ele>112.0</ele><time>2026-04-04T09:04:57.698Z</time></trkpt><trkpt lat="43.6919212" lon="12.8573777"><ele>112.00000000000001</ele><time>2026-04-04T09:04:59.699Z</time></trkpt><trkpt lat="43.691971" lon="12.8573107"><ele>112.0</ele><time>2026-04-04T09:05:01.698Z</time></trkpt><trkpt lat="43.6920289" lon="12.8572509"><ele>111.66666666666667</ele><time>2026-04-04T09:05:03.698Z</time></trkpt><trkpt lat="43.6920842" lon="12.8572071"><ele>111.33333333333334</ele><time>2026-04-04T09:05:05.699Z</time></trkpt><trkpt lat="43.6921453" lon="12.8571335"><ele>111.0</ele><time>2026-04-04T09:05:08.699Z</time></trkpt><trkpt lat="43.6922018" lon="12.8570207"><ele>110.66666666666666</ele><time>2026-04-04T09:05:11.699Z</time></trkpt><trkpt lat="43.6922133" lon="12.8569257"><ele>110.33333333333333</ele><time>2026-04-04T09:05:13.698Z</time></trkpt><trkpt lat="43.6921319" lon="12.8568661"><ele>110.0</ele><time>2026-04-04T09:05:15.698Z</time></trkpt><trkpt lat="43.692049" lon="12.8568339"><ele>109.99999999999999</ele><time>2026-04-04T09:05:17.698Z</time></trkpt><trkpt lat="43.6919665" lon="12.8568237"><ele>110.0</ele><time>2026-04-04T09:05:19.699Z</time></trkpt><trkpt lat="43.6918718" lon="12.8567713"><ele>110.0</ele><time>2026-04-04T09:05:21.699Z</time></trkpt><trkpt lat="43.6917979" lon="12.8567597"><ele>110.0</ele><time>2026-04-04T09:05:23.699Z</time></trkpt><trkpt lat="43.6917389" lon="12.8567123"><ele>109.99999999999999</ele><time>2026-04-04T09:05:26.698Z</time></trkpt><trkpt lat="43.6917727" lon="12.8565983"><ele>110.0</ele><time>2026-04-04T09:05:29.698Z</time></trkpt><trkpt lat="43.6917917" lon="12.8565118"><ele>107.99999999999999</ele><time>2026-04-04T09:05:31.698Z</time></trkpt><trkpt lat="43.6917652" lon="12.8564109"><ele>106.0</ele><time>2026-04-04T09:05:34.698Z</time></trkpt><trkpt lat="43.6916949" lon="12.8563526"><ele>104.0</ele><time>2026-04-04T09:05:37.699Z</time></trkpt><trkpt lat="43.6916078" lon="12.856305"><ele>102.0</ele><time>2026-04-04T09:05:39.698Z</time></trkpt><trkpt lat="43.6915463" lon="12.8562273"><ele>99.99999999999999</ele><time>2026-04-04T09:05:41.698Z</time></trkpt><trkpt lat="43.6915022" lon="12.8561498"><ele>98.0</ele><time>2026-04-04T09:05:43.697Z</time></trkpt><trkpt lat="43.6914543" lon="12.8560878"><ele>98.0</ele><time>2026-04-04T09:05:45.698Z</time></trkpt><trkpt lat="43.6914281" lon="12.8559988"><ele>98.0</ele><time>2026-04-04T09:05:47.699Z</time></trkpt><trkpt lat="43.6914183" lon="12.8558936"><ele>98.0</ele><time>2026-04-04T09:05:50.699Z</time></trkpt><trkpt lat="43.6913978" lon="12.8557934"><ele>98.0</ele><time>2026-04-04T09:05:53.698Z</time></trkpt><trkpt lat="43.6913921" lon="12.855668"><ele>98.0</ele><time>2026-04-04T09:05:56.699Z</time></trkpt><trkpt lat="43.6914329" lon="12.8555976"><ele>98.0</ele><time>2026-04-04T09:06:00.698Z</time></trkpt><trkpt lat="43.6914715" lon="12.855521"><ele>98.0</ele><time>2026-04-04T09:06:04.699Z</time></trkpt><trkpt lat="43.6915036" lon="12.8554195"><ele>95.99999999999999</ele><time>2026-04-04T09:06:09.699Z</time></trkpt><trkpt lat="43.6915777" lon="12.8554259"><ele>94.0</ele><time>2026-04-04T09:06:12.698Z</time></trkpt><trkpt lat="43.6916489" lon="12.8554951"><ele>92.0</ele><time>2026-04-04T09:06:14.699Z</time></trkpt><trkpt lat="43.691719" lon="12.8555269"><ele>90.0</ele><time>2026-04-04T09:06:16.698Z</time></trkpt><trkpt lat="43.6917683" lon="12.8554675"><ele>88.0</ele><time>2026-04-04T09:06:19.698Z</time></trkpt><trkpt lat="43.6917864" lon="12.8553375"><ele>86.0</ele><time>2026-04-04T09:06:30.698Z</time></trkpt><trkpt lat="43.6918106" lon="12.855207"><ele>86.00000000000001</ele><time>2026-04-04T09:06:32.698Z</time></trkpt><trkpt lat="43.6918566" lon="12.8551277"><ele>86.0</ele><time>2026-04-04T09:06:35.698Z</time></trkpt><trkpt lat="43.6919284" lon="12.8550647"><ele>86.0</ele><time>2026-04-04T09:06:39.698Z</time></trkpt><trkpt lat="43.6919654" lon="12.8549798"><ele>86.0</ele><time>2026-04-04T09:06:41.698Z</time></trkpt><trkpt lat="43.6919995" lon="12.8548923"><ele>86.0</ele><time>2026-04-04T09:06:43.698Z</time></trkpt><trkpt lat="43.6920255" lon="12.8547949"><ele>86.00000000000001</ele><time>2026-04-04T09:06:45.698Z</time></trkpt><trkpt lat="43.6920465" lon="12.854702"><ele>86.0</ele><time>2026-04-04T09:06:47.699Z</time></trkpt><trkpt lat="43.6920156" lon="12.8545936"><ele>84.83333333333334</ele><time>2026-04-04T09:06:49.698Z</time></trkpt><trkpt lat="43.6920138" lon="12.8544562"><ele>83.66666666666667</ele><time>2026-04-04T09:06:51.698Z</time></trkpt><trkpt lat="43.692016" lon="12.8543315"><ele>82.5</ele><time>2026-04-04T09:06:53.697Z</time></trkpt><trkpt lat="43.6919797" lon="12.8542463"><ele>81.33333333333333</ele><time>2026-04-04T09:06:55.698Z</time></trkpt><trkpt lat="43.6919229" lon="12.8541698"><ele>80.16666666666666</ele><time>2026-04-04T09:06:57.698Z</time></trkpt><trkpt lat="43.6918405" lon="12.8541415"><ele>79.0</ele><time>2026-04-04T09:06:59.698Z</time></trkpt><trkpt lat="43.6917588" lon="12.8541215"><ele>79.0</ele><time>2026-04-04T09:07:01.698Z</time></trkpt><trkpt lat="43.6916956" lon="12.8540321"><ele>79.0</ele><time>2026-04-04T09:07:03.697Z</time></trkpt><trkpt lat="43.6917572" lon="12.8539665"><ele>79.0</ele><time>2026-04-04T09:07:07.698Z</time></trkpt><trkpt lat="43.6918378" lon="12.8540408"><ele>79.0</ele><time>2026-04-04T09:07:10.697Z</time></trkpt><trkpt lat="43.6919205" lon="12.8540907"><ele>79.0</ele><time>2026-04-04T09:07:12.698Z</time></trkpt><trkpt lat="43.6919922" lon="12.8541319"><ele>79.0</ele><time>2026-04-04T09:07:15.699Z</time></trkpt><trkpt lat="43.6920619" lon="12.854209"><ele>78.33333333333333</ele><time>2026-04-04T09:07:18.7Z</time></trkpt><trkpt lat="43.6921271" lon="12.8542407"><ele>77.66666666666666</ele><time>2026-04-04T09:07:20.699Z</time></trkpt><trkpt lat="43.6921415" lon="12.8541557"><ele>77.0</ele><time>2026-04-04T09:07:23.699Z</time></trkpt><trkpt lat="43.6921307" lon="12.8540639"><ele>76.33333333333333</ele><time>2026-04-04T09:07:25.697Z</time></trkpt><trkpt lat="43.6921912" lon="12.8539701"><ele>75.66666666666667</ele><time>2026-04-04T09:07:27.697Z</time></trkpt><trkpt lat="43.6922531" lon="12.8539139"><ele>75.0</ele><time>2026-04-04T09:07:29.699Z</time></trkpt><trkpt lat="43.6923483" lon="12.8538356"><ele>75.0</ele><time>2026-04-04T09:07:33.699Z</time></trkpt><trkpt lat="43.6924096" lon="12.8537534"><ele>75.0</ele><time>2026-04-04T09:07:35.698Z</time></trkpt><trkpt lat="43.6924173" lon="12.8536474"><ele>75.0</ele><time>2026-04-04T09:07:37.698Z</time></trkpt><trkpt lat="43.6923739" lon="12.8535408"><ele>75.0</ele><time>2026-04-04T09:07:39.7Z</time></trkpt><trkpt lat="43.6923618" lon="12.8534104"><ele>75.0</ele><time>2026-04-04T09:07:41.699Z</time></trkpt><trkpt lat="43.6923208" lon="12.8533"><ele>75.0</ele><time>2026-04-04T09:07:43.698Z</time></trkpt><trkpt lat="43.6922714" lon="12.8532065"><ele>75.66666666666667</ele><time>2026-04-04T09:07:45.698Z</time></trkpt><trkpt lat="43.6921921" lon="12.8531335"><ele>76.33333333333333</ele><time>2026-04-04T09:07:47.698Z</time></trkpt><trkpt lat="43.6921103" lon="12.8530811"><ele>77.0</ele><time>2026-04-04T09:07:49.698Z</time></trkpt><trkpt lat="43.692036" lon="12.8530094"><ele>77.66666666666666</ele><time>2026-04-04T09:07:51.697Z</time></trkpt><trkpt lat="43.691983" lon="12.8529038"><ele>78.33333333333333</ele><time>2026-04-04T09:07:54.698Z</time></trkpt><trkpt lat="43.6919743" lon="12.8528094"><ele>79.0</ele><time>2026-04-04T09:07:56.698Z</time></trkpt><trkpt lat="43.6920146" lon="12.8527244"><ele>79.0</ele><time>2026-04-04T09:07:59.698Z</time></trkpt><trkpt lat="43.6921071" lon="12.8527426"><ele>79.0</ele><time>2026-04-04T09:08:02.698Z</time></trkpt><trkpt lat="43.6921722" lon="12.8528312"><ele>79.0</ele><time>2026-04-04T09:08:04.698Z</time></trkpt><trkpt lat="43.6922549" lon="12.8528961"><ele>79.0</ele><time>2026-04-04T09:08:06.697Z</time></trkpt><trkpt lat="43.6923139" lon="12.8528634"><ele>79.0</ele><time>2026-04-04T09:08:08.699Z</time></trkpt><trkpt lat="43.6923435" lon="12.8527553"><ele>79.0</ele><time>2026-04-04T09:08:11.698Z</time></trkpt><trkpt lat="43.6924458" lon="12.8527402"><ele>79.00000000000001</ele><time>2026-04-04T09:08:15.698Z</time></trkpt><trkpt lat="43.692513" lon="12.8527148"><ele>79.0</ele><time>2026-04-04T09:08:17.698Z</time></trkpt><trkpt lat="43.6925883" lon="12.8526862"><ele>79.0</ele><time>2026-04-04T09:08:19.697Z</time></trkpt><trkpt lat="43.6926464" lon="12.8526305"><ele>79.0</ele><time>2026-04-04T09:08:21.698Z</time></trkpt><trkpt lat="43.6926151" lon="12.8525279"><ele>79.0</ele><time>2026-04-04T09:08:24.698Z</time></trkpt><trkpt lat="43.6925329" lon="12.8525173"><ele>79.00000000000001</ele><time>2026-04-04T09:08:26.697Z</time></trkpt><trkpt lat="43.6924686" lon="12.852502"><ele>79.0</ele><time>2026-04-04T09:08:28.698Z</time></trkpt><trkpt lat="43.6924788" lon="12.8523754"><ele>79.66666666666666</ele><time>2026-04-04T09:08:31.697Z</time></trkpt><trkpt lat="43.6925321" lon="12.8522853"><ele>80.33333333333333</ele><time>2026-04-04T09:08:33.699Z</time></trkpt><trkpt lat="43.692565" lon="12.8521845"><ele>81.0</ele><time>2026-04-04T09:08:35.699Z</time></trkpt><trkpt lat="43.6925961" lon="12.8520837"><ele>81.66666666666667</ele><time>2026-04-04T09:08:37.698Z</time></trkpt><trkpt lat="43.6926142" lon="12.8519804"><ele>82.33333333333334</ele><time>2026-04-04T09:08:39.698Z</time></trkpt><trkpt lat="43.6926288" lon="12.8518746"><ele>83.0</ele><time>2026-04-04T09:08:41.698Z</time></trkpt><trkpt lat="43.692716" lon="12.8518749"><ele>82.0</ele><time>2026-04-04T09:08:44.697Z</time></trkpt><trkpt lat="43.6927967" lon="12.8519657"><ele>81.0</ele><time>2026-04-04T09:08:46.699Z</time></trkpt><trkpt lat="43.6928729" lon="12.8520078"><ele>80.0</ele><time>2026-04-04T09:08:48.697Z</time></trkpt><trkpt lat="43.6929444" lon="12.8519429"><ele>79.0</ele><time>2026-04-04T09:08:51.697Z</time></trkpt><trkpt lat="43.6929189" lon="12.8518197"><ele>78.0</ele><time>2026-04-04T09:08:53.699Z</time></trkpt><trkpt lat="43.6929038" lon="12.8517281"><ele>77.0</ele><time>2026-04-04T09:08:56.698Z</time></trkpt><trkpt lat="43.6928831" lon="12.851636"><ele>77.0</ele><time>2026-04-04T09:09:00.698Z</time></trkpt><trkpt lat="43.6928161" lon="12.8516233"><ele>77.0</ele><time>2026-04-04T09:09:03.697Z</time></trkpt><trkpt lat="43.6927749" lon="12.8515538"><ele>77.0</ele><time>2026-04-04T09:09:06.697Z</time></trkpt><trkpt lat="43.6928007" lon="12.8514546"><ele>77.0</ele><time>2026-04-04T09:09:08.698Z</time></trkpt><trkpt lat="43.6927333" lon="12.8513996"><ele>77.0</ele><time>2026-04-04T09:09:11.698Z</time></trkpt><trkpt lat="43.6926419" lon="12.851405"><ele>77.0</ele><time>2026-04-04T09:09:13.699Z</time></trkpt><trkpt lat="43.6925758" lon="12.8514086"><ele>77.0</ele><time>2026-04-04T09:09:14.697Z</time></trkpt><trkpt lat="43.6925115" lon="12.8514092"><ele>78.33333333333334</ele><time>2026-04-04T09:09:15.699Z</time></trkpt><trkpt lat="43.6924106" lon="12.8514153"><ele>79.66666666666667</ele><time>2026-04-04T09:09:17.698Z</time></trkpt><trkpt lat="43.6923466" lon="12.8514396"><ele>81.0</ele><time>2026-04-04T09:09:19.698Z</time></trkpt><trkpt lat="43.6923399" lon="12.8513368"><ele>82.33333333333333</ele><time>2026-04-04T09:09:24.698Z</time></trkpt><trkpt lat="43.6923691" lon="12.8512468"><ele>83.66666666666666</ele><time>2026-04-04T09:09:27.698Z</time></trkpt><trkpt lat="43.6924141" lon="12.8511839"><ele>85.0</ele><time>2026-04-04T09:09:29.698Z</time></trkpt><trkpt lat="43.6924622" lon="12.8511039"><ele>85.0</ele><time>2026-04-04T09:09:31.697Z</time></trkpt><trkpt lat="43.6925074" lon="12.851014"><ele>85.0</ele><time>2026-04-04T09:09:33.697Z</time></trkpt><trkpt lat="43.6925545" lon="12.8509367"><ele>85.0</ele><time>2026-04-04T09:09:35.698Z</time></trkpt><trkpt lat="43.6926418" lon="12.8509498"><ele>85.0</ele><time>2026-04-04T09:09:38.698Z</time></trkpt><trkpt lat="43.6926995" lon="12.8510251"><ele>85.0</ele><time>2026-04-04T09:09:40.697Z</time></trkpt><trkpt lat="43.6927664" lon="12.8509846"><ele>85.0</ele><time>2026-04-04T09:09:44.697Z</time></trkpt><trkpt lat="43.6927553" lon="12.8508785"><ele>84.66666666666666</ele><time>2026-04-04T09:09:46.699Z</time></trkpt><trkpt lat="43.6927342" lon="12.8507659"><ele>84.33333333333333</ele><time>2026-04-04T09:09:48.697Z</time></trkpt><trkpt lat="43.6927492" lon="12.850662"><ele>84.0</ele><time>2026-04-04T09:09:50.697Z</time></trkpt><trkpt lat="43.6928228" lon="12.8505816"><ele>83.66666666666667</ele><time>2026-04-04T09:09:52.698Z</time></trkpt><trkpt lat="43.6928542" lon="12.8504497"><ele>83.33333333333334</ele><time>2026-04-04T09:09:55.697Z</time></trkpt><trkpt lat="43.6928205" lon="12.8503635"><ele>83.0</ele><time>2026-04-04T09:09:57.698Z</time></trkpt><trkpt lat="43.6927963" lon="12.8502663"><ele>82.42857142857143</ele><time>2026-04-04T09:09:59.698Z</time></trkpt><trkpt lat="43.6928066" lon="12.850177"><ele>81.85714285714286</ele><time>2026-04-04T09:10:01.698Z</time></trkpt><trkpt lat="43.6927815" lon="12.8500779"><ele>81.28571428571429</ele><time>2026-04-04T09:10:04.698Z</time></trkpt><trkpt lat="43.6927365" lon="12.8500084"><ele>80.71428571428572</ele><time>2026-04-04T09:10:06.697Z</time></trkpt><trkpt lat="43.6927157" lon="12.8499249"><ele>80.14285714285714</ele><time>2026-04-04T09:10:08.698Z</time></trkpt><trkpt lat="43.6927366" lon="12.8498298"><ele>79.57142857142858</ele><time>2026-04-04T09:10:10.697Z</time></trkpt><trkpt lat="43.6927616" lon="12.8497298"><ele>79.0</ele><time>2026-04-04T09:10:12.697Z</time></trkpt><trkpt lat="43.6927857" lon="12.8496177"><ele>78.66666666666666</ele><time>2026-04-04T09:10:14.698Z</time></trkpt><trkpt lat="43.6928101" lon="12.8494757"><ele>78.33333333333333</ele><time>2026-04-04T09:10:16.698Z</time></trkpt><trkpt lat="43.6928175" lon="12.8493529"><ele>78.0</ele><time>2026-04-04T09:10:18.697Z</time></trkpt><trkpt lat="43.6928349" lon="12.8492537"><ele>77.66666666666667</ele><time>2026-04-04T09:10:20.697Z</time></trkpt><trkpt lat="43.6928972" lon="12.8491531"><ele>77.33333333333334</ele><time>2026-04-04T09:10:23.697Z</time></trkpt><trkpt lat="43.6929574" lon="12.8491013"><ele>77.0</ele><time>2026-04-04T09:10:26.698Z</time></trkpt><trkpt lat="43.6930116" lon="12.8490213"><ele>77.0</ele><time>2026-04-04T09:10:29.698Z</time></trkpt><trkpt lat="43.6930211" lon="12.8489119"><ele>77.0</ele><time>2026-04-04T09:10:31.697Z</time></trkpt><trkpt lat="43.6930596" lon="12.8487831"><ele>77.0</ele><time>2026-04-04T09:10:33.698Z</time></trkpt><trkpt lat="43.6930867" lon="12.8486253"><ele>77.0</ele><time>2026-04-04T09:10:35.697Z</time></trkpt><trkpt lat="43.6930959" lon="12.8484724"><ele>77.0</ele><time>2026-04-04T09:10:37.698Z</time></trkpt><trkpt lat="43.6931445" lon="12.8484032"><ele>76.83333333333334</ele><time>2026-04-04T09:10:39.699Z</time></trkpt><trkpt lat="43.6932352" lon="12.8483715"><ele>76.66666666666667</ele><time>2026-04-04T09:10:41.698Z</time></trkpt><trkpt lat="43.6933243" lon="12.8483752"><ele>76.5</ele><time>2026-04-04T09:10:43.697Z</time></trkpt><trkpt lat="43.6933686" lon="12.8482883"><ele>76.33333333333333</ele><time>2026-04-04T09:10:46.698Z</time></trkpt><trkpt lat="43.6933763" lon="12.848185"><ele>76.16666666666666</ele><time>2026-04-04T09:10:51.699Z</time></trkpt><trkpt lat="43.6933674" lon="12.8480941"><ele>76.0</ele><time>2026-04-04T09:10:56.697Z</time></trkpt><trkpt lat="43.693365" lon="12.8480025"><ele>76.0</ele><time>2026-04-04T09:10:58.697Z</time></trkpt><trkpt lat="43.693355" lon="12.8478946"><ele>76.0</ele><time>2026-04-04T09:11:00.698Z</time></trkpt><trkpt lat="43.6933413" lon="12.8477962"><ele>76.0</ele><time>2026-04-04T09:11:02.698Z</time></trkpt><trkpt lat="43.6933259" lon="12.8476481"><ele>76.0</ele><time>2026-04-04T09:11:04.697Z</time></trkpt><trkpt lat="43.6933169" lon="12.8474917"><ele>76.0</ele><time>2026-04-04T09:11:06.698Z</time></trkpt><trkpt lat="43.6933164" lon="12.8474016"><ele>76.0</ele><time>2026-04-04T09:11:07.697Z</time></trkpt><trkpt lat="43.6933098" lon="12.8472778"><ele>76.16666666666666</ele><time>2026-04-04T09:11:09.697Z</time></trkpt><trkpt lat="43.6932981" lon="12.8471791"><ele>76.33333333333333</ele><time>2026-04-04T09:11:11.698Z</time></trkpt><trkpt lat="43.6933052" lon="12.8470823"><ele>76.5</ele><time>2026-04-04T09:11:13.697Z</time></trkpt><trkpt lat="43.6932886" lon="12.8469568"><ele>76.66666666666667</ele><time>2026-04-04T09:11:15.697Z</time></trkpt><trkpt lat="43.693273" lon="12.8468546"><ele>76.83333333333334</ele><time>2026-04-04T09:11:17.698Z</time></trkpt><trkpt lat="43.6932622" lon="12.8467364"><ele>77.0</ele><time>2026-04-04T09:11:19.697Z</time></trkpt><trkpt lat="43.6932477" lon="12.8466045"><ele>77.16666666666667</ele><time>2026-04-04T09:11:21.697Z</time></trkpt><trkpt lat="43.6932448" lon="12.846496"><ele>77.33333333333334</ele><time>2026-04-04T09:11:23.697Z</time></trkpt><trkpt lat="43.6932185" lon="12.8463967"><ele>77.5</ele><time>2026-04-04T09:11:25.697Z</time></trkpt><trkpt lat="43.6932067" lon="12.8462828"><ele>77.66666666666667</ele><time>2026-04-04T09:11:27.697Z</time></trkpt><trkpt lat="43.6932204" lon="12.8461887"><ele>77.83333333333333</ele><time>2026-04-04T09:11:29.698Z</time></trkpt><trkpt lat="43.6932178" lon="12.8460677"><ele>78.0</ele><time>2026-04-04T09:11:31.698Z</time></trkpt><trkpt lat="43.6932074" lon="12.8459355"><ele>78.0</ele><time>2026-04-04T09:11:33.699Z</time></trkpt><trkpt lat="43.6931814" lon="12.8457807"><ele>78.0</ele><time>2026-04-04T09:11:35.698Z</time></trkpt><trkpt lat="43.6931694" lon="12.8456913"><ele>78.0</ele><time>2026-04-04T09:11:36.697Z</time></trkpt><trkpt lat="43.6931444" lon="12.8455256"><ele>78.0</ele><time>2026-04-04T09:11:38.699Z</time></trkpt><trkpt lat="43.693134" lon="12.8454369"><ele>78.0</ele><time>2026-04-04T09:11:39.697Z</time></trkpt><trkpt lat="43.6931102" lon="12.8452737"><ele>78.0</ele><time>2026-04-04T09:11:41.698Z</time></trkpt><trkpt lat="43.6930867" lon="12.8451379"><ele>78.0</ele><time>2026-04-04T09:11:43.697Z</time></trkpt><trkpt lat="43.6930748" lon="12.8449845"><ele>78.0</ele><time>2026-04-04T09:11:45.698Z</time></trkpt><trkpt lat="43.6930526" lon="12.8448661"><ele>78.0</ele><time>2026-04-04T09:11:47.697Z</time></trkpt><trkpt lat="43.6930463" lon="12.8447478"><ele>78.0</ele><time>2026-04-04T09:11:49.697Z</time></trkpt><trkpt lat="43.6930354" lon="12.8446112"><ele>77.83333333333333</ele><time>2026-04-04T09:11:51.698Z</time></trkpt><trkpt lat="43.6930181" lon="12.8444685"><ele>77.66666666666667</ele><time>2026-04-04T09:11:53.698Z</time></trkpt><trkpt lat="43.6929959" lon="12.8443081"><ele>77.5</ele><time>2026-04-04T09:11:55.698Z</time></trkpt><trkpt lat="43.6929682" lon="12.8442175"><ele>77.33333333333334</ele><time>2026-04-04T09:11:56.698Z</time></trkpt><trkpt lat="43.6929503" lon="12.8441326"><ele>77.16666666666667</ele><time>2026-04-04T09:11:57.698Z</time></trkpt><trkpt lat="43.6929282" lon="12.8440464"><ele>77.0</ele><time>2026-04-04T09:11:58.697Z</time></trkpt><trkpt lat="43.6929111" lon="12.8439598"><ele>77.0</ele><time>2026-04-04T09:11:59.697Z</time></trkpt><trkpt lat="43.69289" lon="12.8438776"><ele>77.0</ele><time>2026-04-04T09:12:00.697Z</time></trkpt><trkpt lat="43.6928782" lon="12.8437714"><ele>77.0</ele><time>2026-04-04T09:12:01.698Z</time></trkpt><trkpt lat="43.6928655" lon="12.8436165"><ele>77.0</ele><time>2026-04-04T09:12:03.697Z</time></trkpt><trkpt lat="43.6928387" lon="12.8435334"><ele>77.0</ele><time>2026-04-04T09:12:04.697Z</time></trkpt><trkpt lat="43.6928035" lon="12.843435"><ele>77.0</ele><time>2026-04-04T09:12:05.698Z</time></trkpt><trkpt lat="43.6927761" lon="12.8433197"><ele>77.33333333333334</ele><time>2026-04-04T09:12:06.699Z</time></trkpt><trkpt lat="43.69275" lon="12.8432245"><ele>77.66666666666667</ele><time>2026-04-04T09:12:07.698Z</time></trkpt><trkpt lat="43.6927255" lon="12.8430509"><ele>78.0</ele><time>2026-04-04T09:12:09.698Z</time></trkpt><trkpt lat="43.6927258" lon="12.8429409"><ele>78.33333333333333</ele><time>2026-04-04T09:12:10.698Z</time></trkpt><trkpt lat="43.6927249" lon="12.8428381"><ele>78.66666666666666</ele><time>2026-04-04T09:12:11.698Z</time></trkpt><trkpt lat="43.6927252" lon="12.8427223"><ele>79.0</ele><time>2026-04-04T09:12:12.698Z</time></trkpt><trkpt lat="43.6927262" lon="12.8426083"><ele>79.0</ele><time>2026-04-04T09:12:13.697Z</time></trkpt><trkpt lat="43.6927255" lon="12.8425003"><ele>79.0</ele><time>2026-04-04T09:12:14.698Z</time></trkpt><trkpt lat="43.6927166" lon="12.842388"><ele>79.0</ele><time>2026-04-04T09:12:15.698Z</time></trkpt><trkpt lat="43.6927018" lon="12.8422755"><ele>79.0</ele><time>2026-04-04T09:12:16.698Z</time></trkpt><trkpt lat="43.6926935" lon="12.8421693"><ele>79.0</ele><time>2026-04-04T09:12:17.698Z</time></trkpt><trkpt lat="43.6926787" lon="12.8419994"><ele>79.0</ele><time>2026-04-04T09:12:19.697Z</time></trkpt><trkpt lat="43.6926418" lon="12.8418528"><ele>78.83333333333333</ele><time>2026-04-04T09:12:21.697Z</time></trkpt><trkpt lat="43.6925902" lon="12.8417959"><ele>78.66666666666666</ele><time>2026-04-04T09:12:22.699Z</time></trkpt><trkpt lat="43.6925166" lon="12.8416608"><ele>78.5</ele><time>2026-04-04T09:12:24.698Z</time></trkpt><trkpt lat="43.6924972" lon="12.8415324"><ele>78.33333333333333</ele><time>2026-04-04T09:12:25.697Z</time></trkpt><trkpt lat="43.6924821" lon="12.8414208"><ele>78.16666666666667</ele><time>2026-04-04T09:12:26.697Z</time></trkpt><trkpt lat="43.6924625" lon="12.8413351"><ele>78.0</ele><time>2026-04-04T09:12:27.697Z</time></trkpt><trkpt lat="43.692429" lon="12.8412467"><ele>78.0</ele><time>2026-04-04T09:12:28.698Z</time></trkpt><trkpt lat="43.6923921" lon="12.8411482"><ele>78.0</ele><time>2026-04-04T09:12:29.699Z</time></trkpt><trkpt lat="43.6923638" lon="12.8410665"><ele>78.0</ele><time>2026-04-04T09:12:30.698Z</time></trkpt><trkpt lat="43.6923353" lon="12.8409864"><ele>78.0</ele><time>2026-04-04T09:12:31.697Z</time></trkpt><trkpt lat="43.6923064" lon="12.8409066"><ele>78.0</ele><time>2026-04-04T09:12:32.698Z</time></trkpt><trkpt lat="43.6922827" lon="12.8407844"><ele>78.0</ele><time>2026-04-04T09:12:34.697Z</time></trkpt><trkpt lat="43.6922172" lon="12.8407271"><ele>78.0</ele><time>2026-04-04T09:12:36.698Z</time></trkpt><trkpt lat="43.6921061" lon="12.8407527"><ele>78.2</ele><time>2026-04-04T09:12:38.697Z</time></trkpt><trkpt lat="43.6920188" lon="12.8407804"><ele>78.4</ele><time>2026-04-04T09:12:39.698Z</time></trkpt><trkpt lat="43.6919443" lon="12.8408191"><ele>78.60000000000001</ele><time>2026-04-04T09:12:40.697Z</time></trkpt><trkpt lat="43.6918591" lon="12.8408835"><ele>78.8</ele><time>2026-04-04T09:12:41.697Z</time></trkpt><trkpt lat="43.6917606" lon="12.8409516"><ele>79.0</ele><time>2026-04-04T09:12:42.698Z</time></trkpt><trkpt lat="43.6916896" lon="12.8410484"><ele>80.0</ele><time>2026-04-04T09:12:43.697Z</time></trkpt><trkpt lat="43.6916247" lon="12.8411357"><ele>81.0</ele><time>2026-04-04T09:12:44.699Z</time></trkpt><trkpt lat="43.6915573" lon="12.841231"><ele>82.0</ele><time>2026-04-04T09:12:45.697Z</time></trkpt><trkpt lat="43.6914868" lon="12.8413344"><ele>83.0</ele><time>2026-04-04T09:12:46.698Z</time></trkpt><trkpt lat="43.691413" lon="12.8414308"><ele>84.0</ele><time>2026-04-04T09:12:47.698Z</time></trkpt><trkpt lat="43.6913458" lon="12.8415243"><ele>84.0</ele><time>2026-04-04T09:12:48.698Z</time></trkpt><trkpt lat="43.6912982" lon="12.8416138"><ele>84.0</ele><time>2026-04-04T09:12:49.697Z</time></trkpt><trkpt lat="43.6912657" lon="12.8417074"><ele>84.0</ele><time>2026-04-04T09:12:50.698Z</time></trkpt><trkpt lat="43.6912431" lon="12.8418"><ele>84.0</ele><time>2026-04-04T09:12:51.698Z</time></trkpt><trkpt lat="43.6912192" lon="12.841905"><ele>84.0</ele><time>2026-04-04T09:12:52.697Z</time></trkpt><trkpt lat="43.6911921" lon="12.8420036"><ele>84.0</ele><time>2026-04-04T09:12:53.697Z</time></trkpt><trkpt lat="43.691153" lon="12.8420783"><ele>84.0</ele><time>2026-04-04T09:12:54.697Z</time></trkpt><trkpt lat="43.69109" lon="12.8421335"><ele>83.66666666666667</ele><time>2026-04-04T09:12:56.698Z</time></trkpt><trkpt lat="43.6910533" lon="12.8422145"><ele>83.33333333333333</ele><time>2026-04-04T09:12:59.698Z</time></trkpt><trkpt lat="43.6910815" lon="12.842296"><ele>83.0</ele><time>2026-04-04T09:13:02.699Z</time></trkpt><trkpt lat="43.6911384" lon="12.8422274"><ele>82.66666666666666</ele><time>2026-04-04T09:21:23.696Z</time></trkpt><trkpt lat="43.6911738" lon="12.8421338"><ele>82.33333333333333</ele><time>2026-04-04T09:21:25.697Z</time></trkpt><trkpt lat="43.6912204" lon="12.8420343"><ele>82.0</ele><time>2026-04-04T09:21:27.697Z</time></trkpt><trkpt lat="43.6912517" lon="12.8418873"><ele>82.33333333333333</ele><time>2026-04-04T09:21:29.696Z</time></trkpt><trkpt lat="43.6912768" lon="12.8417778"><ele>82.66666666666666</ele><time>2026-04-04T09:21:31.696Z</time></trkpt><trkpt lat="43.6913093" lon="12.8416569"><ele>83.0</ele><time>2026-04-04T09:21:34.696Z</time></trkpt><trkpt lat="43.6913466" lon="12.8415777"><ele>83.33333333333333</ele><time>2026-04-04T09:21:36.696Z</time></trkpt><trkpt lat="43.6914025" lon="12.8414917"><ele>83.66666666666667</ele><time>2026-04-04T09:21:38.696Z</time></trkpt><trkpt lat="43.691476" lon="12.8413963"><ele>84.0</ele><time>2026-04-04T09:21:40.696Z</time></trkpt><trkpt lat="43.6915421" lon="12.8413026"><ele>84.0</ele><time>2026-04-04T09:21:42.696Z</time></trkpt><trkpt lat="43.6915876" lon="12.8412392"><ele>84.0</ele><time>2026-04-04T09:21:44.697Z</time></trkpt><trkpt lat="43.6916545" lon="12.8411489"><ele>84.0</ele><time>2026-04-04T09:21:47.696Z</time></trkpt><trkpt lat="43.6917134" lon="12.8410756"><ele>84.0</ele><time>2026-04-04T09:21:49.697Z</time></trkpt><trkpt lat="43.6917678" lon="12.8409951"><ele>84.0</ele><time>2026-04-04T09:21:51.696Z</time></trkpt><trkpt lat="43.691834" lon="12.8409192"><ele>84.0</ele><time>2026-04-04T09:21:53.696Z</time></trkpt><trkpt lat="43.6919082" lon="12.8408577"><ele>83.0</ele><time>2026-04-04T09:21:55.696Z</time></trkpt><trkpt lat="43.6919949" lon="12.8408034"><ele>82.0</ele><time>2026-04-04T09:21:57.695Z</time></trkpt><trkpt lat="43.6920869" lon="12.8407797"><ele>81.0</ele><time>2026-04-04T09:21:59.697Z</time></trkpt><trkpt lat="43.6921764" lon="12.8407619"><ele>80.0</ele><time>2026-04-04T09:22:01.696Z</time></trkpt><trkpt lat="43.6922418" lon="12.8408002"><ele>79.0</ele><time>2026-04-04T09:22:05.696Z</time></trkpt><trkpt lat="43.6922944" lon="12.8409241"><ele>78.83333333333333</ele><time>2026-04-04T09:22:08.696Z</time></trkpt><trkpt lat="43.6923355" lon="12.8410369"><ele>78.66666666666666</ele><time>2026-04-04T09:22:10.696Z</time></trkpt><trkpt lat="43.6923789" lon="12.8411469"><ele>78.5</ele><time>2026-04-04T09:22:12.697Z</time></trkpt><trkpt lat="43.6924206" lon="12.8412564"><ele>78.33333333333333</ele><time>2026-04-04T09:22:14.696Z</time></trkpt><trkpt lat="43.6924415" lon="12.8413526"><ele>78.16666666666667</ele><time>2026-04-04T09:22:16.696Z</time></trkpt><trkpt lat="43.6924617" lon="12.8414734"><ele>78.0</ele><time>2026-04-04T09:22:18.697Z</time></trkpt><trkpt lat="43.6924934" lon="12.8416174"><ele>78.0</ele><time>2026-04-04T09:22:20.697Z</time></trkpt><trkpt lat="43.692545" lon="12.8417373"><ele>78.0</ele><time>2026-04-04T09:22:22.696Z</time></trkpt><trkpt lat="43.6926318" lon="12.8418239"><ele>78.0</ele><time>2026-04-04T09:22:24.696Z</time></trkpt><trkpt lat="43.6926799" lon="12.8419081"><ele>78.0</ele><time>2026-04-04T09:22:26.697Z</time></trkpt><trkpt lat="43.6926943" lon="12.8420265"><ele>78.0</ele><time>2026-04-04T09:22:28.697Z</time></trkpt><trkpt lat="43.6927013" lon="12.8421835"><ele>78.2</ele><time>2026-04-04T09:22:30.696Z</time></trkpt><trkpt lat="43.6927134" lon="12.8423258"><ele>78.4</ele><time>2026-04-04T09:22:32.696Z</time></trkpt><trkpt lat="43.692718" lon="12.8424777"><ele>78.60000000000001</ele><time>2026-04-04T09:22:34.696Z</time></trkpt><trkpt lat="43.6927099" lon="12.842654"><ele>78.8</ele><time>2026-04-04T09:22:36.697Z</time></trkpt><trkpt lat="43.6927135" lon="12.8427439"><ele>79.0</ele><time>2026-04-04T09:22:37.696Z</time></trkpt><trkpt lat="43.6927166" lon="12.8429126"><ele>79.2</ele><time>2026-04-04T09:22:39.696Z</time></trkpt><trkpt lat="43.6927203" lon="12.8430013"><ele>79.4</ele><time>2026-04-04T09:22:40.696Z</time></trkpt><trkpt lat="43.6927311" lon="12.8431725"><ele>79.6</ele><time>2026-04-04T09:22:42.695Z</time></trkpt><trkpt lat="43.6927642" lon="12.843296"><ele>79.8</ele><time>2026-04-04T09:22:44.697Z</time></trkpt><trkpt lat="43.6927964" lon="12.8434354"><ele>80.0</ele><time>2026-04-04T09:22:46.696Z</time></trkpt><trkpt lat="43.6928447" lon="12.8435866"><ele>79.57142857142857</ele><time>2026-04-04T09:22:48.696Z</time></trkpt><trkpt lat="43.6928653" lon="12.8437227"><ele>79.14285714285714</ele><time>2026-04-04T09:22:50.695Z</time></trkpt><trkpt lat="43.6928919" lon="12.8438108"><ele>78.71428571428572</ele><time>2026-04-04T09:22:51.696Z</time></trkpt><trkpt lat="43.6929059" lon="12.8439042"><ele>78.28571428571428</ele><time>2026-04-04T09:22:52.696Z</time></trkpt><trkpt lat="43.6929267" lon="12.8439998"><ele>77.85714285714286</ele><time>2026-04-04T09:22:53.696Z</time></trkpt><trkpt lat="43.6929421" lon="12.8440931"><ele>77.42857142857143</ele><time>2026-04-04T09:22:54.697Z</time></trkpt><trkpt lat="43.6929568" lon="12.8441823"><ele>77.0</ele><time>2026-04-04T09:22:55.695Z</time></trkpt><trkpt lat="43.6929869" lon="12.8443204"><ele>77.0</ele><time>2026-04-04T09:22:57.696Z</time></trkpt><trkpt lat="43.6930015" lon="12.8444754"><ele>77.0</ele><time>2026-04-04T09:22:59.696Z</time></trkpt><trkpt lat="43.6930265" lon="12.8446351"><ele>77.0</ele><time>2026-04-04T09:23:01.697Z</time></trkpt><trkpt lat="43.6930392" lon="12.844784"><ele>77.0</ele><time>2026-04-04T09:23:03.697Z</time></trkpt><trkpt lat="43.6930544" lon="12.8449024"><ele>77.0</ele><time>2026-04-04T09:23:05.696Z</time></trkpt><trkpt lat="43.6930796" lon="12.8450576"><ele>77.2</ele><time>2026-04-04T09:23:07.696Z</time></trkpt><trkpt lat="43.6931063" lon="12.8452021"><ele>77.4</ele><time>2026-04-04T09:23:09.697Z</time></trkpt><trkpt lat="43.6931274" lon="12.845327"><ele>77.6</ele><time>2026-04-04T09:23:11.695Z</time></trkpt><trkpt lat="43.6931388" lon="12.8454573"><ele>77.8</ele><time>2026-04-04T09:23:13.696Z</time></trkpt><trkpt lat="43.6931627" lon="12.8455855"><ele>78.0</ele><time>2026-04-04T09:23:15.696Z</time></trkpt><trkpt lat="43.6931962" lon="12.8457278"><ele>78.0</ele><time>2026-04-04T09:23:17.696Z</time></trkpt><trkpt lat="43.6932147" lon="12.8458835"><ele>78.0</ele><time>2026-04-04T09:23:19.696Z</time></trkpt><trkpt lat="43.6932242" lon="12.8460215"><ele>78.0</ele><time>2026-04-04T09:23:21.697Z</time></trkpt><trkpt lat="43.6932321" lon="12.8461789"><ele>78.0</ele><time>2026-04-04T09:23:23.696Z</time></trkpt><trkpt lat="43.6932285" lon="12.8462901"><ele>78.0</ele><time>2026-04-04T09:23:25.696Z</time></trkpt><trkpt lat="43.6932343" lon="12.8463801"><ele>78.0</ele><time>2026-04-04T09:23:27.695Z</time></trkpt><trkpt lat="43.6932567" lon="12.8464744"><ele>78.0</ele><time>2026-04-04T09:23:29.696Z</time></trkpt><trkpt lat="43.6932699" lon="12.846611"><ele>78.0</ele><time>2026-04-04T09:23:31.696Z</time></trkpt><trkpt lat="43.6932843" lon="12.8467372"><ele>78.0</ele><time>2026-04-04T09:23:33.695Z</time></trkpt><trkpt lat="43.6933032" lon="12.846843"><ele>78.0</ele><time>2026-04-04T09:23:35.697Z</time></trkpt><trkpt lat="43.6933151" lon="12.8469761"><ele>78.0</ele><time>2026-04-04T09:23:37.695Z</time></trkpt><trkpt lat="43.6933241" lon="12.8470958"><ele>77.85714285714286</ele><time>2026-04-04T09:23:39.697Z</time></trkpt><trkpt lat="43.6933268" lon="12.8471911"><ele>77.71428571428571</ele><time>2026-04-04T09:23:41.696Z</time></trkpt><trkpt lat="43.6933403" lon="12.8473005"><ele>77.57142857142857</ele><time>2026-04-04T09:23:43.696Z</time></trkpt><trkpt lat="43.6933486" lon="12.8474123"><ele>77.42857142857143</ele><time>2026-04-04T09:23:45.696Z</time></trkpt><trkpt lat="43.6933473" lon="12.8475247"><ele>77.28571428571428</ele><time>2026-04-04T09:23:47.696Z</time></trkpt><trkpt lat="43.693347" lon="12.847618"><ele>77.14285714285714</ele><time>2026-04-04T09:23:49.696Z</time></trkpt><trkpt lat="43.6933535" lon="12.8477076"><ele>77.0</ele><time>2026-04-04T09:23:51.696Z</time></trkpt><trkpt lat="43.6933715" lon="12.8478309"><ele>76.85714285714286</ele><time>2026-04-04T09:23:54.696Z</time></trkpt><trkpt lat="43.6933855" lon="12.8479528"><ele>76.71428571428572</ele><time>2026-04-04T09:23:56.697Z</time></trkpt><trkpt lat="43.6933912" lon="12.8480658"><ele>76.57142857142857</ele><time>2026-04-04T09:23:58.696Z</time></trkpt><trkpt lat="43.6933982" lon="12.8481553"><ele>76.42857142857143</ele><time>2026-04-04T09:24:01.696Z</time></trkpt><trkpt lat="43.6934055" lon="12.8482435"><ele>76.28571428571429</ele><time>2026-04-04T09:24:08.696Z</time></trkpt><trkpt lat="43.6933712" lon="12.8483184"><ele>76.14285714285714</ele><time>2026-04-04T09:24:12.697Z</time></trkpt><trkpt lat="43.6933057" lon="12.8483308"><ele>76.0</ele><time>2026-04-04T09:24:18.696Z</time></trkpt><trkpt lat="43.6932313" lon="12.8483229"><ele>76.0</ele><time>2026-04-04T09:24:21.695Z</time></trkpt><trkpt lat="43.6931609" lon="12.8483536"><ele>76.0</ele><time>2026-04-04T09:24:23.696Z</time></trkpt><trkpt lat="43.6931101" lon="12.8484328"><ele>76.0</ele><time>2026-04-04T09:24:26.696Z</time></trkpt><trkpt lat="43.6931767" lon="12.8483583"><ele>76.0</ele><time>2026-04-04T09:25:07.695Z</time></trkpt><trkpt lat="43.6932364" lon="12.8483286"><ele>76.0</ele><time>2026-04-04T09:25:09.697Z</time></trkpt><trkpt lat="43.6932998" lon="12.8483681"><ele>76.0</ele><time>2026-04-04T09:25:12.695Z</time></trkpt><trkpt lat="43.6933125" lon="12.848462"><ele>76.0</ele><time>2026-04-04T09:25:15.696Z</time></trkpt><trkpt lat="43.6932991" lon="12.8485878"><ele>76.16666666666666</ele><time>2026-04-04T09:25:18.695Z</time></trkpt><trkpt lat="43.6932922" lon="12.8486998"><ele>76.33333333333333</ele><time>2026-04-04T09:25:21.695Z</time></trkpt><trkpt lat="43.6932913" lon="12.8488037"><ele>76.5</ele><time>2026-04-04T09:25:24.696Z</time></trkpt><trkpt lat="43.6932918" lon="12.8489306"><ele>76.66666666666667</ele><time>2026-04-04T09:25:27.695Z</time></trkpt><trkpt lat="43.6932876" lon="12.8490505"><ele>76.83333333333334</ele><time>2026-04-04T09:25:30.696Z</time></trkpt><trkpt lat="43.6932857" lon="12.8491577"><ele>77.0</ele><time>2026-04-04T09:25:33.696Z</time></trkpt><trkpt lat="43.6933448" lon="12.8492278"><ele>77.0</ele><time>2026-04-04T09:25:36.696Z</time></trkpt><trkpt lat="43.6934069" lon="12.8492702"><ele>77.0</ele><time>2026-04-04T09:25:38.696Z</time></trkpt><trkpt lat="43.6934645" lon="12.8493105"><ele>77.0</ele><time>2026-04-04T09:25:40.694Z</time></trkpt><trkpt lat="43.6935288" lon="12.8493553"><ele>77.0</ele><time>2026-04-04T09:25:42.697Z</time></trkpt><trkpt lat="43.6936012" lon="12.8494183"><ele>77.0</ele><time>2026-04-04T09:25:45.695Z</time></trkpt><trkpt lat="43.6936438" lon="12.8495147"><ele>77.0</ele><time>2026-04-04T09:25:48.695Z</time></trkpt><trkpt lat="43.6936679" lon="12.8496221"><ele>77.0</ele><time>2026-04-04T09:25:50.695Z</time></trkpt><trkpt lat="43.6937038" lon="12.8497111"><ele>77.0</ele><time>2026-04-04T09:25:52.696Z</time></trkpt><trkpt lat="43.6937276" lon="12.8498035"><ele>77.0</ele><time>2026-04-04T09:25:54.695Z</time></trkpt><trkpt lat="43.6937163" lon="12.8499071"><ele>77.0</ele><time>2026-04-04T09:25:56.697Z</time></trkpt><trkpt lat="43.6937137" lon="12.8500102"><ele>77.0</ele><time>2026-04-04T09:25:58.696Z</time></trkpt><trkpt lat="43.6937129" lon="12.8501188"><ele>77.0</ele><time>2026-04-04T09:26:00.695Z</time></trkpt><trkpt lat="43.693713" lon="12.8502202"><ele>77.0</ele><time>2026-04-04T09:26:02.697Z</time></trkpt><trkpt lat="43.6937072" lon="12.8503271"><ele>77.0</ele><time>2026-04-04T09:26:04.695Z</time></trkpt><trkpt lat="43.6937037" lon="12.8504186"><ele>77.0</ele><time>2026-04-04T09:26:07.696Z</time></trkpt><trkpt lat="43.6936844" lon="12.8505308"><ele>77.0</ele><time>2026-04-04T09:26:10.695Z</time></trkpt><trkpt lat="43.6936698" lon="12.8506413"><ele>77.0</ele><time>2026-04-04T09:26:13.696Z</time></trkpt><trkpt lat="43.6936625" lon="12.8507815"><ele>77.0</ele><time>2026-04-04T09:26:16.695Z</time></trkpt><trkpt lat="43.6936617" lon="12.8508693"><ele>77.0</ele><time>2026-04-04T09:26:18.696Z</time></trkpt><trkpt lat="43.6936557" lon="12.8509567"><ele>77.0</ele><time>2026-04-04T09:26:21.695Z</time></trkpt><trkpt lat="43.6936315" lon="12.8510601"><ele>77.0</ele><time>2026-04-04T09:26:41.695Z</time></trkpt><trkpt lat="43.6936576" lon="12.8511635"><ele>77.0</ele><time>2026-04-04T09:26:44.695Z</time></trkpt><trkpt lat="43.6936991" lon="12.8512295"><ele>77.0</ele><time>2026-04-04T09:26:46.696Z</time></trkpt><trkpt lat="43.6937212" lon="12.8513296"><ele>77.0</ele><time>2026-04-04T09:26:48.695Z</time></trkpt><trkpt lat="43.6937062" lon="12.8514248"><ele>77.0</ele><time>2026-04-04T09:26:49.696Z</time></trkpt><trkpt lat="43.6936872" lon="12.8515579"><ele>77.0</ele><time>2026-04-04T09:26:51.697Z</time></trkpt><trkpt lat="43.6936586" lon="12.8517109"><ele>77.0</ele><time>2026-04-04T09:26:53.695Z</time></trkpt><trkpt lat="43.6936363" lon="12.8518731"><ele>77.0</ele><time>2026-04-04T09:26:55.695Z</time></trkpt><trkpt lat="43.6936069" lon="12.8519737"><ele>77.0</ele><time>2026-04-04T09:26:56.695Z</time></trkpt><trkpt lat="43.6935681" lon="12.8521241"><ele>77.0</ele><time>2026-04-04T09:26:58.695Z</time></trkpt><trkpt lat="43.6935249" lon="12.852255"><ele>76.5</ele><time>2026-04-04T09:27:00.695Z</time></trkpt><trkpt lat="43.6934961" lon="12.8523597"><ele>76.0</ele><time>2026-04-04T09:27:02.695Z</time></trkpt><trkpt lat="43.6934588" lon="12.8524476"><ele>75.5</ele><time>2026-04-04T09:27:04.695Z</time></trkpt><trkpt lat="43.6933972" lon="12.8525121"><ele>75.0</ele><time>2026-04-04T09:27:06.696Z</time></trkpt><trkpt lat="43.6933372" lon="12.8526087"><ele>74.5</ele><time>2026-04-04T09:27:09.695Z</time></trkpt><trkpt lat="43.6932494" lon="12.8527143"><ele>74.0</ele><time>2026-04-04T09:27:11.696Z</time></trkpt><trkpt lat="43.6932102" lon="12.8528122"><ele>73.83333333333334</ele><time>2026-04-04T09:27:13.695Z</time></trkpt><trkpt lat="43.6931964" lon="12.8529013"><ele>73.66666666666667</ele><time>2026-04-04T09:27:15.696Z</time></trkpt><trkpt lat="43.6931896" lon="12.8530049"><ele>73.5</ele><time>2026-04-04T09:27:48.696Z</time></trkpt><trkpt lat="43.693152" lon="12.8531199"><ele>73.33333333333333</ele><time>2026-04-04T09:28:33.697Z</time></trkpt><trkpt lat="43.6931219" lon="12.8532189"><ele>73.16666666666666</ele><time>2026-04-04T09:28:36.695Z</time></trkpt><trkpt lat="43.6930789" lon="12.8532925"><ele>73.0</ele><time>2026-04-04T09:28:39.695Z</time></trkpt><trkpt lat="43.6930168" lon="12.8533936"><ele>73.14285714285714</ele><time>2026-04-04T09:28:42.695Z</time></trkpt><trkpt lat="43.6930023" lon="12.8534813"><ele>73.28571428571429</ele><time>2026-04-04T09:28:44.695Z</time></trkpt><trkpt lat="43.6930035" lon="12.8535863"><ele>73.42857142857143</ele><time>2026-04-04T09:28:46.695Z</time></trkpt><trkpt lat="43.6929861" lon="12.853678"><ele>73.57142857142857</ele><time>2026-04-04T09:28:48.695Z</time></trkpt><trkpt lat="43.6929287" lon="12.8537382"><ele>73.71428571428571</ele><time>2026-04-04T09:28:50.695Z</time></trkpt><trkpt lat="43.6928646" lon="12.8538016"><ele>73.85714285714286</ele><time>2026-04-04T09:28:53.696Z</time></trkpt><trkpt lat="43.6928208" lon="12.8538986"><ele>74.0</ele><time>2026-04-04T09:28:57.696Z</time></trkpt><trkpt lat="43.6927548" lon="12.8540039"><ele>74.0</ele><time>2026-04-04T09:29:00.696Z</time></trkpt><trkpt lat="43.6927139" lon="12.8540765"><ele>74.0</ele><time>2026-04-04T09:29:03.694Z</time></trkpt><trkpt lat="43.6926489" lon="12.8541073"><ele>74.0</ele><time>2026-04-04T09:29:49.696Z</time></trkpt><trkpt lat="43.6925926" lon="12.8541567"><ele>74.0</ele><time>2026-04-04T09:29:52.695Z</time></trkpt><trkpt lat="43.6925683" lon="12.8542471"><ele>74.0</ele><time>2026-04-04T09:29:56.695Z</time></trkpt><trkpt lat="43.6925248" lon="12.8543159"><ele>74.0</ele><time>2026-04-04T09:31:03.695Z</time></trkpt><trkpt lat="43.6924901" lon="12.8543995"><ele>74.0</ele><time>2026-04-04T09:31:08.695Z</time></trkpt><trkpt lat="43.6924581" lon="12.854489"><ele>74.0</ele><time>2026-04-04T09:31:11.695Z</time></trkpt><trkpt lat="43.692417" lon="12.854559"><ele>74.0</ele><time>2026-04-04T09:31:14.695Z</time></trkpt><trkpt lat="43.6923467" lon="12.8546117"><ele>74.0</ele><time>2026-04-04T09:31:17.694Z</time></trkpt><trkpt lat="43.6922888" lon="12.8546627"><ele>74.0</ele><time>2026-04-04T09:31:20.695Z</time></trkpt><trkpt lat="43.6922302" lon="12.8546959"><ele>74.0</ele><time>2026-04-04T09:32:31.695Z</time></trkpt><trkpt lat="43.6921497" lon="12.8546712"><ele>74.0</ele><time>2026-04-04T09:32:40.694Z</time></trkpt><trkpt lat="43.6920796" lon="12.8547046"><ele>74.0</ele><time>2026-04-04T09:32:50.694Z</time></trkpt><trkpt lat="43.6920561" lon="12.8548125"><ele>74.0</ele><time>2026-04-04T09:32:54.695Z</time></trkpt><trkpt lat="43.6920135" lon="12.8549132"><ele>74.0</ele><time>2026-04-04T09:32:57.694Z</time></trkpt><trkpt lat="43.691989" lon="12.8549982"><ele>74.0</ele><time>2026-04-04T09:32:59.694Z</time></trkpt><trkpt lat="43.6919585" lon="12.8550784"><ele>74.0</ele><time>2026-04-04T09:33:07.694Z</time></trkpt><trkpt lat="43.6920091" lon="12.8551634"><ele>74.0</ele><time>2026-04-04T09:33:13.694Z</time></trkpt><trkpt lat="43.6920781" lon="12.8552343"><ele>74.0</ele><time>2026-04-04T09:33:16.695Z</time></trkpt><trkpt lat="43.692115" lon="12.855313"><ele>74.0</ele><time>2026-04-04T09:33:22.695Z</time></trkpt><trkpt lat="43.6921362" lon="12.8554074"><ele>74.57142857142857</ele><time>2026-04-04T09:33:26.694Z</time></trkpt><trkpt lat="43.6921399" lon="12.8555282"><ele>75.14285714285714</ele><time>2026-04-04T09:33:29.694Z</time></trkpt><trkpt lat="43.6921469" lon="12.8556151"><ele>75.71428571428572</ele><time>2026-04-04T09:33:31.694Z</time></trkpt><trkpt lat="43.6921636" lon="12.8557053"><ele>76.28571428571428</ele><time>2026-04-04T09:33:33.694Z</time></trkpt><trkpt lat="43.6922139" lon="12.8558012"><ele>76.85714285714285</ele><time>2026-04-04T09:33:36.694Z</time></trkpt><trkpt lat="43.6922711" lon="12.8558512"><ele>77.42857142857143</ele><time>2026-04-04T09:33:38.694Z</time></trkpt><trkpt lat="43.692333" lon="12.8558761"><ele>78.0</ele><time>2026-04-04T09:33:40.695Z</time></trkpt><trkpt lat="43.6923989" lon="12.8558376"><ele>78.0</ele><time>2026-04-04T09:33:43.694Z</time></trkpt><trkpt lat="43.6924049" lon="12.855734"><ele>78.0</ele><time>2026-04-04T09:33:49.695Z</time></trkpt><trkpt lat="43.692349" lon="12.8556814"><ele>78.0</ele><time>2026-04-04T09:33:55.695Z</time></trkpt><trkpt lat="43.6923038" lon="12.8556096"><ele>78.0</ele><time>2026-04-04T09:34:21.694Z</time></trkpt><trkpt lat="43.6923538" lon="12.8555422"><ele>78.0</ele><time>2026-04-04T09:34:25.695Z</time></trkpt><trkpt lat="43.6924085" lon="12.8554984"><ele>78.0</ele><time>2026-04-04T09:34:27.694Z</time></trkpt><trkpt lat="43.6924539" lon="12.8554361"><ele>78.0</ele><time>2026-04-04T09:34:29.694Z</time></trkpt><trkpt lat="43.6924834" lon="12.8553513"><ele>78.0</ele><time>2026-04-04T09:34:31.694Z</time></trkpt><trkpt lat="43.6925002" lon="12.8552646"><ele>78.0</ele><time>2026-04-04T09:34:33.695Z</time></trkpt><trkpt lat="43.6925127" lon="12.855149"><ele>78.0</ele><time>2026-04-04T09:34:35.694Z</time></trkpt><trkpt lat="43.6925222" lon="12.8550549"><ele>78.0</ele><time>2026-04-04T09:34:37.693Z</time></trkpt><trkpt lat="43.6925359" lon="12.8549619"><ele>78.0</ele><time>2026-04-04T09:34:39.694Z</time></trkpt><trkpt lat="43.6925295" lon="12.8548396"><ele>78.0</ele><time>2026-04-04T09:34:42.695Z</time></trkpt><trkpt lat="43.6924769" lon="12.8547848"><ele>78.0</ele><time>2026-04-04T09:34:45.694Z</time></trkpt><trkpt lat="43.6924003" lon="12.8548233"><ele>77.33333333333333</ele><time>2026-04-04T09:34:49.694Z</time></trkpt><trkpt lat="43.6923377" lon="12.8548656"><ele>76.66666666666667</ele><time>2026-04-04T09:34:52.694Z</time></trkpt><trkpt lat="43.6922776" lon="12.8548187"><ele>76.0</ele><time>2026-04-04T09:35:04.693Z</time></trkpt><trkpt lat="43.6922389" lon="12.8547473"><ele>75.33333333333334</ele><time>2026-04-04T09:35:32.694Z</time></trkpt><trkpt lat="43.6921529" lon="12.8547241"><ele>74.66666666666667</ele><time>2026-04-04T09:35:35.695Z</time></trkpt><trkpt lat="43.6920787" lon="12.8547409"><ele>74.0</ele><time>2026-04-04T09:35:40.694Z</time></trkpt><trkpt lat="43.6920319" lon="12.8548401"><ele>74.0</ele><time>2026-04-04T09:35:46.694Z</time></trkpt><trkpt lat="43.6919906" lon="12.8549306"><ele>74.0</ele><time>2026-04-04T09:35:49.693Z</time></trkpt><trkpt lat="43.691967" lon="12.855023"><ele>74.0</ele><time>2026-04-04T09:35:58.693Z</time></trkpt><trkpt lat="43.6919497" lon="12.8551121"><ele>74.0</ele><time>2026-04-04T09:36:01.694Z</time></trkpt><trkpt lat="43.6920012" lon="12.8551776"><ele>74.0</ele><time>2026-04-04T09:36:04.694Z</time></trkpt><trkpt lat="43.6920549" lon="12.8552345"><ele>74.0</ele><time>2026-04-04T09:36:07.694Z</time></trkpt><trkpt lat="43.6920802" lon="12.8551277"><ele>74.0</ele><time>2026-04-04T09:36:18.693Z</time></trkpt><trkpt lat="43.6920448" lon="12.8550477"><ele>74.0</ele><time>2026-04-04T09:36:20.693Z</time></trkpt><trkpt lat="43.691972" lon="12.8550249"><ele>74.0</ele><time>2026-04-04T09:36:23.694Z</time></trkpt><trkpt lat="43.6919134" lon="12.8550948"><ele>74.0</ele><time>2026-04-04T09:37:10.693Z</time></trkpt><trkpt lat="43.6918588" lon="12.8551437"><ele>74.0</ele><time>2026-04-04T09:37:13.694Z</time></trkpt><trkpt lat="43.6918414" lon="12.8552395"><ele>74.0</ele><time>2026-04-04T09:37:15.694Z</time></trkpt><trkpt lat="43.6918379" lon="12.8553308"><ele>74.0</ele><time>2026-04-04T09:37:17.693Z</time></trkpt><trkpt lat="43.6918178" lon="12.8554198"><ele>74.0</ele><time>2026-04-04T09:37:19.694Z</time></trkpt><trkpt lat="43.691776" lon="12.8554866"><ele>75.71428571428572</ele><time>2026-04-04T09:37:21.693Z</time></trkpt><trkpt lat="43.6917073" lon="12.8555003"><ele>77.42857142857143</ele><time>2026-04-04T09:37:23.693Z</time></trkpt><trkpt lat="43.6916391" lon="12.8554714"><ele>79.14285714285714</ele><time>2026-04-04T09:37:25.694Z</time></trkpt><trkpt lat="43.691565" lon="12.8554073"><ele>80.85714285714286</ele><time>2026-04-04T09:37:28.693Z</time></trkpt><trkpt lat="43.691495" lon="12.8554115"><ele>82.57142857142857</ele><time>2026-04-04T09:37:31.694Z</time></trkpt><trkpt lat="43.6914756" lon="12.8555128"><ele>84.28571428571429</ele><time>2026-04-04T09:37:34.694Z</time></trkpt><trkpt lat="43.6914587" lon="12.8556068"><ele>86.0</ele><time>2026-04-04T09:37:36.693Z</time></trkpt><trkpt lat="43.6914272" lon="12.8556993"><ele>86.0</ele><time>2026-04-04T09:37:38.693Z</time></trkpt><trkpt lat="43.6913934" lon="12.8557924"><ele>86.0</ele><time>2026-04-04T09:37:40.694Z</time></trkpt><trkpt lat="43.6914094" lon="12.8559328"><ele>86.0</ele><time>2026-04-04T09:37:42.693Z</time></trkpt><trkpt lat="43.6914419" lon="12.8560464"><ele>86.0</ele><time>2026-04-04T09:37:44.694Z</time></trkpt><trkpt lat="43.6915032" lon="12.8560974"><ele>86.0</ele><time>2026-04-04T09:37:46.694Z</time></trkpt><trkpt lat="43.6915557" lon="12.8561706"><ele>86.0</ele><time>2026-04-04T09:37:48.694Z</time></trkpt><trkpt lat="43.6916083" lon="12.8562626"><ele>88.0</ele><time>2026-04-04T09:37:50.693Z</time></trkpt><trkpt lat="43.6916861" lon="12.8563178"><ele>90.0</ele><time>2026-04-04T09:37:52.695Z</time></trkpt><trkpt lat="43.6917265" lon="12.8564048"><ele>92.0</ele><time>2026-04-04T09:37:54.693Z</time></trkpt><trkpt lat="43.6917775" lon="12.8564628"><ele>94.0</ele><time>2026-04-04T09:37:56.694Z</time></trkpt><trkpt lat="43.6917706" lon="12.8565704"><ele>95.99999999999999</ele><time>2026-04-04T09:37:58.694Z</time></trkpt><trkpt lat="43.6917571" lon="12.8566793"><ele>98.0</ele><time>2026-04-04T09:38:00.693Z</time></trkpt><trkpt lat="43.6918268" lon="12.8567442"><ele>98.0</ele><time>2026-04-04T09:38:02.694Z</time></trkpt><trkpt lat="43.6919231" lon="12.8567685"><ele>98.0</ele><time>2026-04-04T09:38:04.695Z</time></trkpt><trkpt lat="43.6920295" lon="12.8568192"><ele>98.0</ele><time>2026-04-04T09:38:06.694Z</time></trkpt><trkpt lat="43.6920911" lon="12.8568385"><ele>98.0</ele><time>2026-04-04T09:38:07.693Z</time></trkpt><trkpt lat="43.692189" lon="12.8568986"><ele>98.0</ele><time>2026-04-04T09:38:09.693Z</time></trkpt><trkpt lat="43.6922139" lon="12.8570195"><ele>99.99999999999999</ele><time>2026-04-04T09:38:11.693Z</time></trkpt><trkpt lat="43.6921755" lon="12.8571232"><ele>102.0</ele><time>2026-04-04T09:38:13.693Z</time></trkpt><trkpt lat="43.69208" lon="12.8572124"><ele>104.0</ele><time>2026-04-04T09:38:15.695Z</time></trkpt><trkpt lat="43.6920311" lon="12.8572816"><ele>106.0</ele><time>2026-04-04T09:38:16.694Z</time></trkpt><trkpt lat="43.6919822" lon="12.8573466"><ele>107.99999999999999</ele><time>2026-04-04T09:38:17.693Z</time></trkpt><trkpt lat="43.6918955" lon="12.8574287"><ele>110.0</ele><time>2026-04-04T09:38:19.695Z</time></trkpt><trkpt lat="43.6917864" lon="12.8575001"><ele>112.0</ele><time>2026-04-04T09:38:21.694Z</time></trkpt><trkpt lat="43.6917186" lon="12.857535"><ele>112.0</ele><time>2026-04-04T09:38:22.694Z</time></trkpt><trkpt lat="43.6916332" lon="12.8575827"><ele>112.0</ele><time>2026-04-04T09:38:26.694Z</time></trkpt><trkpt lat="43.6915614" lon="12.8576006"><ele>112.0</ele><time>2026-04-04T09:38:28.694Z</time></trkpt><trkpt lat="43.6914743" lon="12.8576231"><ele>113.0</ele><time>2026-04-04T09:38:32.693Z</time></trkpt></trkseg></trk></gpx>